createdAt,value
2017-08-01T00:00:03.683Z,-2.9
2017-08-01T00:01:03.389Z,-2.8
2017-08-01T00:02:02.102Z,-2.7
2017-08-01T00:03:02.053Z,-2.7
2017-08-01T00:04:01.131Z,-2.6
2017-08-01T00:05:00.701Z,-2.4
2017-08-01T00:06:00.158Z,-2.5
2017-08-01T00:06:59.361Z,-2.5
2017-08-01T00:07:58.934Z,-2.5
2017-08-01T00:08:58.142Z,-2.5
2017-08-01T00:09:57.850Z,-2.6
2017-08-01T00:10:57.643Z,-2.6
2017-08-01T00:11:56.337Z,-2.6
2017-08-01T00:12:55.192Z,-2.6
2017-08-01T00:13:26.080Z,-2.6
2017-08-01T00:13:56.464Z,-2.7
2017-08-01T00:14:26.968Z,-2.7
2017-08-01T00:14:57.232Z,-2.6
2017-08-01T00:15:27.621Z,-2.6
2017-08-01T00:15:58.143Z,-2.7
2017-08-01T00:16:28.668Z,-2.7
2017-08-01T00:17:52.415Z,-2.7
2017-08-01T00:19:51.506Z,-2.6
2017-08-01T00:20:50.369Z,-2.7
2017-08-01T00:21:50.071Z,-2.6
2017-08-01T00:22:49.260Z,-2.5
2017-08-01T00:23:48.846Z,-2.4
2017-08-01T00:24:48.028Z,-2.5
2017-08-01T00:25:47.614Z,-2.6
2017-08-01T00:26:46.812Z,-2.6
2017-08-01T00:27:46.016Z,-2.6
2017-08-01T00:29:45.681Z,-2.6
2017-08-01T00:30:44.366Z,-2.7
2017-08-01T00:31:43.449Z,-2.6
2017-08-01T00:32:43.143Z,-2.6
2017-08-01T00:33:42.338Z,-2.6
2017-08-01T00:34:42.037Z,-2.5
2017-08-01T00:35:41.008Z,-2.6
2017-08-01T00:37:39.989Z,-2.7
2017-08-01T00:38:39.065Z,-2.6
2017-08-01T00:39:38.774Z,-2.6
2017-08-01T00:40:37.976Z,-2.6
2017-08-01T00:41:37.170Z,-2.4
2017-08-01T00:42:36.861Z,-2.4
2017-08-01T00:43:36.055Z,-2.3
2017-08-01T00:44:35.246Z,-2.4
2017-08-01T00:45:34.946Z,-2.4
2017-08-01T00:46:34.175Z,-2.4
2017-08-01T00:47:33.382Z,-2.3
2017-08-01T00:48:33.087Z,-2.3
2017-08-01T00:49:32.278Z,-2.3
2017-08-01T00:50:31.473Z,-2.2
2017-08-01T00:51:31.164Z,-2.2
2017-08-01T00:52:30.120Z,-2.2
2017-08-01T00:53:29.818Z,-2.3
2017-08-01T00:54:29.023Z,-2.3
2017-08-01T00:55:28.617Z,-2.3
2017-08-01T00:56:27.704Z,-2.4
2017-08-01T00:57:26.776Z,-2.5
2017-08-01T00:58:26.470Z,-2.5
2017-08-01T00:59:25.552Z,-2.5
2017-08-01T01:00:25.155Z,-2.5
2017-08-01T01:01:24.107Z,-2.5
2017-08-01T01:02:23.686Z,-2.4
2017-08-01T01:03:23.261Z,-2.4
2017-08-01T01:04:22.458Z,-2.4
2017-08-01T01:05:22.153Z,-2.4
2017-08-01T01:06:21.125Z,-2.3
2017-08-01T01:06:51.645Z,-2.3
2017-08-01T01:07:22.147Z,-2.4
2017-08-01T01:08:19.725Z,-2.4
2017-08-01T01:09:19.299Z,-2.4
2017-08-01T01:10:19.002Z,-2.4
2017-08-01T01:11:18.190Z,-2.4
2017-08-01T01:11:48.698Z,-2.4
2017-08-01T01:12:18.857Z,-2.4
2017-08-01T01:13:17.041Z,-2.4
2017-08-01T01:14:16.227Z,-2.4
2017-08-01T01:15:15.421Z,-2.4
2017-08-01T01:16:15.009Z,-2.5
2017-08-01T01:17:14.101Z,-2.5
2017-08-01T01:18:13.699Z,-2.4
2017-08-01T01:19:12.775Z,-2.4
2017-08-01T01:20:12.483Z,-2.4
2017-08-01T01:21:11.673Z,-2.4
2017-08-01T01:22:10.866Z,-2.5
2017-08-01T01:22:41.146Z,-2.5
2017-08-01T01:23:11.647Z,-2.5
2017-08-01T01:23:41.908Z,-2.5
2017-08-01T01:24:12.404Z,-2.5
2017-08-01T01:25:08.966Z,-2.5
2017-08-01T01:26:08.328Z,-2.5
2017-08-01T01:27:08.042Z,-2.6
2017-08-01T01:28:07.135Z,-2.5
2017-08-01T01:29:06.213Z,-2.5
2017-08-01T01:30:05.943Z,-2.5
2017-08-01T01:31:05.139Z,-2.6
2017-08-01T01:32:04.232Z,-2.7
2017-08-01T01:33:03.829Z,-2.5
2017-08-01T01:34:03.040Z,-2.6
2017-08-01T01:35:02.732Z,-2.6
2017-08-01T01:36:01.838Z,-2.7
2017-08-01T01:37:01.531Z,-2.6
2017-08-01T01:38:00.728Z,-2.6
2017-08-01T01:38:59.810Z,-2.6
2017-08-01T01:39:59.502Z,-2.7
2017-08-01T01:40:58.702Z,-2.6
2017-08-01T01:42:57.276Z,-2.6
2017-08-01T01:43:56.971Z,-2.6
2017-08-01T01:44:56.057Z,-2.6
2017-08-01T01:45:55.137Z,-2.6
2017-08-01T01:46:25.524Z,-2.6
2017-08-01T01:46:56.032Z,-2.6
2017-08-01T01:47:26.421Z,-2.6
2017-08-01T01:47:56.919Z,-2.6
2017-08-01T01:48:53.477Z,-2.5
2017-08-01T01:49:52.545Z,-2.5
2017-08-01T01:50:52.241Z,-2.5
2017-08-01T01:51:51.424Z,-2.4
2017-08-01T01:52:51.126Z,-2.3
2017-08-01T01:53:50.322Z,-2.3
2017-08-01T01:54:49.394Z,-2.4
2017-08-01T01:55:49.094Z,-2.4
2017-08-01T01:56:48.294Z,-2.4
2017-08-01T01:57:47.138Z,-2.4
2017-08-01T01:58:46.718Z,-2.4
2017-08-01T02:00:45.812Z,-2.4
2017-08-01T02:01:44.904Z,-2.4
2017-08-01T02:02:15.416Z,-2.4
2017-08-01T02:02:45.692Z,-2.3
2017-08-01T02:03:16.597Z,-2.3
2017-08-01T02:03:46.861Z,-1.9
2017-08-01T02:04:17.250Z,-1.9
2017-08-01T02:05:42.622Z,-1.9
2017-08-01T02:06:41.823Z,-1.8
2017-08-01T02:07:41.028Z,-1.9
2017-08-01T02:08:40.725Z,-1.8
2017-08-01T02:09:39.910Z,-1.8
2017-08-01T02:10:39.096Z,-1.8
2017-08-01T02:11:38.807Z,-1.9
2017-08-01T02:12:37.900Z,-2
2017-08-01T02:13:37.087Z,-2.1
2017-08-01T02:14:07.596Z,-2.1
2017-08-01T02:14:38.111Z,-2.1
2017-08-01T02:15:08.512Z,-2.1
2017-08-01T02:15:39.021Z,-2
2017-08-01T02:16:09.526Z,-2
2017-08-01T02:17:34.661Z,-2
2017-08-01T02:18:33.865Z,-1.9
2017-08-01T02:19:33.580Z,-1.9
2017-08-01T02:20:32.766Z,-1.7
2017-08-01T02:21:31.838Z,-1.6
2017-08-01T02:22:31.312Z,-1.6
2017-08-01T02:23:30.879Z,-1.7
2017-08-01T02:24:30.072Z,-1.6
2017-08-01T02:25:29.650Z,-1.7
2017-08-01T02:26:28.844Z,-1.6
2017-08-01T02:27:27.921Z,-1.6
2017-08-01T02:28:27.640Z,-1.6
2017-08-01T02:29:27.213Z,-1.4
2017-08-01T02:30:26.431Z,-1.4
2017-08-01T02:31:25.271Z,-1.4
2017-08-01T02:32:24.859Z,-1.3
2017-08-01T02:33:24.441Z,-1.1
2017-08-01T02:33:54.834Z,-1.1
2017-08-01T02:34:25.114Z,-1
2017-08-01T02:34:55.395Z,-1
2017-08-01T02:35:25.907Z,-0.8
2017-08-01T02:35:56.070Z,-0.8
2017-08-01T02:37:21.950Z,-0.6
2017-08-01T02:38:21.155Z,-0.5
2017-08-01T02:39:20.342Z,-0.5
2017-08-01T02:40:20.058Z,-0.5
2017-08-01T02:41:19.270Z,-0.6
2017-08-01T02:42:18.473Z,-0.6
2017-08-01T02:43:18.194Z,-0.6
2017-08-01T02:44:17.283Z,-0.6
2017-08-01T02:45:16.764Z,-0.8
2017-08-01T02:46:15.967Z,-0.8
2017-08-01T02:47:15.661Z,-0.7
2017-08-01T02:48:14.735Z,-0.6
2017-08-01T02:49:14.321Z,-0.5
2017-08-01T02:50:13.530Z,-0.7
2017-08-01T02:51:12.719Z,-0.8
2017-08-01T02:52:12.346Z,-0.8
2017-08-01T02:53:11.179Z,-0.9
2017-08-01T02:54:10.759Z,-0.9
2017-08-01T02:55:10.345Z,-1
2017-08-01T02:55:40.720Z,-1
2017-08-01T02:56:11.093Z,-1
2017-08-01T02:56:41.614Z,-1
2017-08-01T02:58:08.392Z,-0.9
2017-08-01T02:59:07.986Z,-0.8
2017-08-01T03:00:07.102Z,-0.8
2017-08-01T03:01:06.810Z,-1
2017-08-01T03:02:06.025Z,-1.1
2017-08-01T03:03:05.097Z,-1.1
2017-08-01T03:04:04.531Z,-1.2
2017-08-01T03:05:04.125Z,-1.2
2017-08-01T03:06:03.091Z,-1.2
2017-08-01T03:07:02.799Z,-1.2
2017-08-01T03:08:01.980Z,-1.3
2017-08-01T03:09:01.678Z,-1.1
2017-08-01T03:10:00.765Z,-1.2
2017-08-01T03:11:00.475Z,-1.2
2017-08-01T03:11:30.626Z,-1.2
2017-08-01T03:12:01.395Z,-1
2017-08-01T03:12:59.077Z,-0.9
2017-08-01T03:13:58.264Z,-0.7
2017-08-01T03:14:57.457Z,-0.7
2017-08-01T03:15:57.037Z,-0.7
2017-08-01T03:16:56.233Z,-0.6
2017-08-01T03:17:55.807Z,-0.7
2017-08-01T03:18:54.766Z,-0.7
2017-08-01T03:19:54.218Z,-0.6
2017-08-01T03:20:53.916Z,-0.7
2017-08-01T03:21:52.987Z,-0.8
2017-08-01T03:22:52.562Z,-0.7
2017-08-01T03:23:52.029Z,-0.9
2017-08-01T03:24:51.222Z,-0.9
2017-08-01T03:25:50.424Z,-1
2017-08-01T03:26:49.999Z,-1.1
2017-08-01T03:27:49.187Z,-1.1
2017-08-01T03:28:48.752Z,-1.1
2017-08-01T03:29:47.584Z,-1.2
2017-08-01T03:30:47.573Z,-1.2
2017-08-01T03:31:46.643Z,-1.2
2017-08-01T03:32:46.235Z,-1.2
2017-08-01T03:33:45.307Z,-1.3
2017-08-01T03:34:44.887Z,-1.3
2017-08-01T03:35:44.092Z,-1.3
2017-08-01T03:36:43.798Z,-1.3
2017-08-01T03:37:43.001Z,-1.3
2017-08-01T03:38:42.084Z,-1.3
2017-08-01T03:39:41.783Z,-1.3
2017-08-01T03:40:40.862Z,-1.2
2017-08-01T03:41:40.558Z,-0.9
2017-08-01T03:42:11.066Z,-0.9
2017-08-01T03:42:41.562Z,-0.7
2017-08-01T03:43:11.818Z,-0.7
2017-08-01T03:43:42.322Z,-0.7
2017-08-01T03:44:12.713Z,-0.7
2017-08-01T03:45:37.971Z,-0.4
2017-08-01T03:46:37.049Z,-0.2
2017-08-01T03:47:36.755Z,-0.2
2017-08-01T03:48:35.827Z,-0.2
2017-08-01T03:49:35.535Z,-0.2
2017-08-01T03:50:34.611Z,-0.2
2017-08-01T03:51:33.690Z,0
2017-08-01T03:52:33.386Z,0
2017-08-01T03:53:32.229Z,0.2
2017-08-01T03:54:31.918Z,0.2
2017-08-01T03:55:31.624Z,0.2
2017-08-01T03:56:30.576Z,0.3
2017-08-01T03:57:30.056Z,0.3
2017-08-01T03:58:29.640Z,0.3
2017-08-01T03:59:28.833Z,0.3
2017-08-01T04:00:28.425Z,0.3
2017-08-01T04:01:27.613Z,0.2
2017-08-01T04:02:26.820Z,0.2
2017-08-01T04:03:26.520Z,0.2
2017-08-01T04:04:25.727Z,0.2
2017-08-01T04:04:56.221Z,0.2
2017-08-01T04:05:26.736Z,0.3
2017-08-01T04:05:57.243Z,0.3
2017-08-01T04:08:23.009Z,0.3
2017-08-01T04:09:22.593Z,0.3
2017-08-01T04:10:21.677Z,0.1
2017-08-01T04:11:21.141Z,0
2017-08-01T04:12:20.850Z,-0.1
2017-08-01T04:13:19.802Z,-0.2
2017-08-01T04:14:19.149Z,-0.2
2017-08-01T04:15:18.628Z,-0.2
2017-08-01T04:16:17.823Z,-0.2
2017-08-01T04:17:17.523Z,-0.1
2017-08-01T04:18:16.722Z,0
2017-08-01T04:19:16.177Z,-0.1
2017-08-01T04:20:15.377Z,0
2017-08-01T04:21:14.959Z,-0.1
2017-08-01T04:22:14.174Z,-0.1
2017-08-01T04:22:44.676Z,-0.1
2017-08-01T04:29:09.781Z,0
2017-08-01T04:30:08.987Z,-0.1
2017-08-01T04:36:05.143Z,-0.5
2017-08-01T04:36:35.656Z,-0.5
2017-08-01T04:41:01.609Z,-0.3
2017-08-01T04:42:01.197Z,-0.4
2017-08-01T04:43:00.395Z,-0.4
2017-08-01T04:44:59.496Z,-0.4
2017-08-01T04:45:58.572Z,-0.4
2017-08-01T04:46:58.276Z,-0.4
2017-08-01T04:47:57.356Z,-0.4
2017-08-01T04:48:56.820Z,-0.5
2017-08-01T04:49:56.023Z,-0.4
2017-08-01T04:50:55.220Z,0.1
2017-08-01T04:51:54.956Z,0.3
2017-08-01T04:52:54.149Z,0.3
2017-08-01T04:53:53.342Z,0.5
2017-08-01T04:54:52.428Z,0.4
2017-08-01T04:55:52.134Z,0.3
2017-08-01T04:56:51.210Z,0.4
2017-08-01T04:57:50.921Z,0.4
2017-08-01T04:58:50.114Z,0.4
2017-08-01T05:00:48.708Z,0.4
2017-08-01T05:01:47.800Z,0.3
2017-08-01T05:02:47.269Z,0.4
2017-08-01T05:03:46.862Z,0.3
2017-08-01T05:04:45.938Z,0.2
2017-08-01T05:06:44.533Z,0.2
2017-08-01T05:07:44.111Z,0.1
2017-08-01T05:08:43.301Z,0
2017-08-01T05:09:43.000Z,0
2017-08-01T05:10:42.200Z,0.1
2017-08-01T05:11:41.401Z,0
2017-08-01T05:12:40.600Z,-0.1
2017-08-01T05:13:40.065Z,-0.1
2017-08-01T05:14:39.157Z,-0.1
2017-08-01T05:15:38.865Z,0
2017-08-01T05:16:37.952Z,0
2017-08-01T05:17:37.159Z,-0.2
2017-08-01T05:18:36.867Z,-0.2
2017-08-01T05:19:36.061Z,-0.2
2017-08-01T05:21:34.415Z,0.1
2017-08-01T05:22:34.099Z,-0.1
2017-08-01T05:23:33.171Z,0
2017-08-01T05:24:32.868Z,-0.1
2017-08-01T05:25:31.831Z,-0.1
2017-08-01T05:26:31.412Z,-0.1
2017-08-01T05:27:30.619Z,-0.1
2017-08-01T05:28:29.817Z,-0.1
2017-08-01T05:29:29.507Z,0
2017-08-01T05:30:28.689Z,0
2017-08-01T05:30:59.191Z,0
2017-08-01T05:31:29.689Z,0
2017-08-01T05:32:00.191Z,0
2017-08-01T05:33:26.564Z,0.1
2017-08-01T05:34:26.151Z,0.3
2017-08-01T05:35:25.343Z,0.2
2017-08-01T05:36:24.540Z,0.2
2017-08-01T05:38:23.012Z,0
2017-08-01T05:39:22.591Z,0.1
2017-08-01T05:41:21.172Z,0.1
2017-08-01T05:42:20.369Z,0
2017-08-01T05:43:20.070Z,0.1
2017-08-01T05:44:19.266Z,0.2
2017-08-01T05:45:18.476Z,0.2
2017-08-01T05:46:17.564Z,0.2
2017-08-01T05:47:17.273Z,0.2
2017-08-01T05:48:16.468Z,0.3
2017-08-01T05:49:15.669Z,0.2
2017-08-01T05:50:14.751Z,0.2
2017-08-01T05:51:14.447Z,0.3
2017-08-01T05:52:13.644Z,0.2
2017-08-01T05:53:12.853Z,0.1
2017-08-01T06:11:00.693Z,-0.1
2017-08-01T06:11:31.203Z,-0.1
2017-08-01T06:15:57.263Z,0
2017-08-01T06:17:55.727Z,0
2017-08-01T06:18:55.317Z,0
2017-08-01T06:20:53.911Z,0
2017-08-01T06:23:51.773Z,0
2017-08-01T06:24:22.281Z,0
2017-08-01T06:27:49.457Z,0
2017-08-01T06:45:37.322Z,-0.1
2017-08-01T07:07:21.994Z,-0.3
2017-08-01T09:13:01.931Z,-0.1
2017-08-01T10:15:25.519Z,-0.5
2017-08-01T13:47:50.387Z,1.3
2017-08-01T13:48:20.905Z,1.3
2017-08-01T13:48:51.425Z,1.4
2017-08-01T13:49:49.995Z,1.4
2017-08-01T13:53:48.132Z,1.9
2017-08-01T13:54:47.839Z,2.2
2017-08-01T13:55:47.570Z,2.3
2017-08-01T13:56:47.273Z,2.3
2017-08-01T13:57:46.974Z,2.3
2017-08-01T13:58:46.694Z,2.3
2017-08-01T13:59:46.278Z,2.5
2017-08-01T14:01:45.371Z,2.6
2017-08-01T16:51:42.334Z,0.5
2017-08-01T16:52:42.048Z,0.5
2017-08-01T16:53:41.751Z,0.5
2017-08-01T16:54:12.271Z,0.5
2017-08-01T16:58:39.628Z,0.5
2017-08-01T16:59:39.210Z,0.5
2017-08-01T17:02:37.965Z,0.3
2017-08-01T17:22:29.957Z,0.3
2017-08-01T17:23:30.116Z,0.2
2017-08-01T17:24:29.197Z,0.2
2017-08-01T17:24:59.715Z,0.2
2017-08-01T17:25:30.256Z,0.2
2017-08-01T17:26:00.657Z,0.2
2017-08-01T17:26:31.061Z,0.2
2017-08-01T17:27:01.576Z,0.2
2017-08-01T17:30:26.754Z,0.3
2017-08-01T17:32:26.237Z,0.3
2017-08-01T17:34:25.339Z,0.1
2017-08-01T17:35:24.938Z,0.2
2017-08-01T17:36:24.524Z,0.2
2017-08-01T17:38:23.529Z,0.3
2017-08-01T17:39:23.238Z,0.2
2017-08-01T17:45:20.304Z,0.2
2017-08-01T17:46:20.016Z,0.3
2017-08-01T17:51:18.297Z,0.1
2017-08-01T17:53:17.277Z,0.1
2017-08-01T17:54:16.872Z,0.2
2017-08-01T17:55:16.587Z,0
2017-08-01T18:38:57.319Z,-0.1
2017-08-01T18:39:56.572Z,-0.2
2017-08-01T18:40:55.840Z,-0.2
2017-08-01T18:43:54.723Z,-0.2
2017-08-01T18:46:52.984Z,-0.2
2017-08-01T18:47:52.685Z,-0.2
2017-08-01T18:48:52.269Z,-0.3
2017-08-01T18:55:49.336Z,-0.4
2017-08-01T18:58:47.838Z,-0.5
2017-08-01T19:00:46.986Z,-0.6
2017-08-01T19:01:46.112Z,-0.7
2017-08-01T19:05:44.498Z,-0.8
2017-08-01T19:08:42.987Z,-0.8
2017-08-01T19:09:42.704Z,-0.8
2017-08-01T19:12:41.073Z,-0.8
2017-08-01T19:16:38.991Z,-1
2017-08-01T19:18:37.983Z,-0.9
2017-08-01T19:19:08.522Z,-0.9
2017-08-01T19:20:36.832Z,-0.9
2017-08-01T19:21:36.564Z,-1
2017-08-01T19:26:34.366Z,-1
2017-08-01T19:39:27.709Z,-1.5
2017-08-01T19:40:27.105Z,-1.5
2017-08-01T19:41:26.583Z,-1.6
2017-08-01T19:48:23.300Z,-1.6
2017-08-01T19:54:19.850Z,-1.6
2017-08-01T19:56:19.073Z,-1.5
2017-08-01T20:05:14.440Z,-1.6
2017-08-01T20:06:13.655Z,-1.6
2017-08-01T20:07:13.439Z,-1.5
2017-08-01T20:08:12.719Z,-1.5
2017-08-01T20:09:12.250Z,-1.5
2017-08-01T20:10:11.948Z,-1.7
2017-08-01T20:11:11.045Z,-1.8
2017-08-01T20:12:10.761Z,-1.8
2017-08-01T20:12:41.271Z,-1.8
2017-08-01T20:13:11.690Z,-1.7
2017-08-01T20:13:42.095Z,-1.7
2017-08-01T20:14:12.610Z,-1.4
2017-08-01T20:14:43.128Z,-1.4
2017-08-01T20:15:13.658Z,-1.4
2017-08-01T20:16:08.723Z,-1.3
2017-08-01T20:17:07.931Z,-1.3
2017-08-01T20:18:07.406Z,-1.1
2017-08-01T20:19:07.136Z,-1
2017-08-01T20:20:06.345Z,-1
2017-08-01T20:21:05.703Z,-1.1
2017-08-01T20:22:05.416Z,-1.1
2017-08-01T20:23:05.126Z,-1.1
2017-08-01T20:24:04.322Z,-1
2017-08-01T20:25:03.800Z,-0.9
2017-08-01T20:26:03.509Z,-0.7
2017-08-01T20:27:02.700Z,-0.7
2017-08-01T20:28:02.239Z,-0.8
2017-08-01T20:29:01.944Z,-1
2017-08-01T20:30:01.531Z,-1.1
2017-08-01T20:31:00.636Z,-1.2
2017-08-01T20:32:00.351Z,-1.2
2017-08-01T20:32:30.655Z,-1.2
2017-08-01T20:33:58.919Z,-1.2
2017-08-01T20:34:58.498Z,-1.3
2017-08-01T20:35:58.080Z,-1.4
2017-08-01T20:36:57.805Z,-1.5
2017-08-01T20:37:57.020Z,-1.5
2017-08-01T20:38:56.610Z,-1.5
2017-08-01T20:39:55.821Z,-1.5
2017-08-01T20:40:55.968Z,-1.5
2017-08-01T20:41:54.934Z,-1.5
2017-08-01T20:42:54.525Z,-1.5
2017-08-01T20:43:25.037Z,-1.5
2017-08-01T20:44:53.312Z,-1.6
2017-08-01T20:45:53.019Z,-1.4
2017-08-01T20:46:52.134Z,-1.4
2017-08-01T20:47:51.845Z,-1.4
2017-08-01T20:48:51.052Z,-1.4
2017-08-01T20:49:50.757Z,-1.4
2017-08-01T20:50:49.600Z,-1.4
2017-08-01T20:51:49.450Z,-1.5
2017-08-01T20:52:49.179Z,-1.5
2017-08-01T20:54:48.282Z,-1.5
2017-08-01T20:55:47.484Z,-1.6
2017-08-01T20:56:47.205Z,-1.6
2017-08-01T20:57:46.295Z,-1.6
2017-08-01T20:58:45.999Z,-1.6
2017-08-01T20:59:45.207Z,-1.6
2017-08-01T21:00:44.929Z,-1.6
2017-08-01T21:01:44.019Z,-1.6
2017-08-01T21:02:43.612Z,-1.6
2017-08-01T21:03:43.204Z,-1.7
2017-08-01T21:04:42.404Z,-1.7
2017-08-01T21:05:42.118Z,-1.7
2017-08-01T21:06:41.198Z,-1.7
2017-08-01T21:07:40.916Z,-1.7
2017-08-01T21:08:40.518Z,-1.7
2017-08-01T21:09:39.709Z,-1.8
2017-08-01T21:10:39.418Z,-1.8
2017-08-01T21:11:38.513Z,-1.7
2017-08-01T21:12:38.101Z,-1.8
2017-08-01T21:13:37.811Z,-1.8
2017-08-01T21:14:37.026Z,-1.9
2017-08-01T21:15:36.747Z,-1.9
2017-08-01T21:16:35.839Z,-1.9
2017-08-01T21:17:35.550Z,-1.9
2017-08-01T21:18:34.772Z,-1.9
2017-08-01T21:19:34.480Z,-1.8
2017-08-01T21:20:33.683Z,-1.8
2017-08-01T21:21:33.296Z,-1.8
2017-08-01T21:22:32.764Z,-1.7
2017-08-01T21:23:32.359Z,-1.8
2017-08-01T21:24:31.323Z,-1.7
2017-08-01T21:25:31.031Z,-1.7
2017-08-01T21:26:30.749Z,-1.7
2017-08-01T21:27:29.719Z,-1.7
2017-08-01T21:28:29.305Z,-1.7
2017-08-01T21:29:28.904Z,-1.6
2017-08-01T21:30:28.498Z,-1.6
2017-08-01T21:31:27.587Z,-1.6
2017-08-01T21:32:27.180Z,-1.7
2017-08-01T21:33:26.652Z,-1.7
2017-08-01T21:34:26.361Z,-1.8
2017-08-01T21:35:25.564Z,-1.9
2017-08-01T21:36:25.269Z,-1.9
2017-08-01T21:37:24.368Z,-1.9
2017-08-01T21:38:24.081Z,-1.9
2017-08-01T21:39:23.169Z,-1.8
2017-08-01T21:39:53.703Z,-1.8
2017-08-01T21:40:24.223Z,-1.8
2017-08-01T21:40:54.739Z,-1.8
2017-08-01T21:41:25.137Z,-1.6
2017-08-01T21:41:55.684Z,-1.6
2017-08-01T21:42:26.099Z,-1.5
2017-08-01T21:42:56.503Z,-1.5
2017-08-01T21:44:21.446Z,-1.5
2017-08-01T21:45:20.153Z,-1.5
2017-08-01T21:46:20.307Z,-1.5
2017-08-01T21:47:19.006Z,-1.5
2017-08-01T21:48:18.225Z,-1.6
2017-08-01T21:49:18.394Z,-1.5
2017-08-01T21:50:17.081Z,-1.5
2017-08-01T21:51:16.801Z,-1.5
2017-08-01T21:52:15.914Z,-1.6
2017-08-01T21:53:15.518Z,-1.6
2017-08-01T21:54:15.228Z,-1.6
2017-08-01T21:54:45.634Z,-1.6
2017-08-01T21:55:16.144Z,-1.6
2017-08-01T21:56:13.848Z,-1.6
2017-08-01T21:57:13.440Z,-1.7
2017-08-01T21:58:12.412Z,-1.7
2017-08-01T21:59:12.393Z,-1.7
2017-08-01T22:00:11.980Z,-1.7
2017-08-01T22:01:10.952Z,-1.7
2017-08-01T22:02:10.652Z,-1.7
2017-08-01T22:03:09.855Z,-1.7
2017-08-01T22:05:08.960Z,-1.7
2017-08-01T22:06:08.047Z,-1.7
2017-08-01T22:07:07.765Z,-1.7
2017-08-01T22:08:07.478Z,-1.7
2017-08-01T22:09:06.566Z,-1.7
2017-08-01T22:10:06.161Z,-1.7
2017-08-01T22:11:05.370Z,-1.8
2017-08-01T22:11:35.790Z,-1.8
2017-08-01T22:12:06.077Z,-1.8
2017-08-01T22:13:04.668Z,-1.8
2017-08-01T22:14:03.878Z,-1.8
2017-08-01T22:15:03.599Z,-1.8
2017-08-01T22:16:02.687Z,-1.7
2017-08-01T22:17:02.280Z,-1.7
2017-08-01T22:18:01.379Z,-1.8
2017-08-01T22:19:00.864Z,-1.8
2017-08-01T22:20:00.445Z,-1.8
2017-08-01T22:20:59.912Z,-1.8
2017-08-01T22:21:59.391Z,-1.7
2017-08-01T22:23:58.505Z,-1.7
2017-08-01T22:24:57.704Z,-1.7
2017-08-01T22:25:57.402Z,-1.7
2017-08-01T22:26:56.614Z,-1.8
2017-08-01T22:27:55.820Z,-1.8
2017-08-01T22:28:55.528Z,-1.7
2017-08-01T22:29:54.737Z,-1.8
2017-08-01T22:30:54.203Z,-1.8
2017-08-01T22:31:53.792Z,-1.8
2017-08-01T22:32:53.386Z,-1.7
2017-08-01T22:33:23.893Z,-1.7
2017-08-01T22:33:54.407Z,-1.7
2017-08-01T22:34:24.700Z,-1.7
2017-08-01T22:34:55.103Z,-1.7
2017-08-01T22:35:25.511Z,-1.7
2017-08-01T22:35:56.044Z,-1.7
2017-08-01T22:36:26.552Z,-1.7
2017-08-01T22:36:56.952Z,-1.7
2017-08-01T22:38:49.647Z,-1.8
2017-08-01T22:39:49.380Z,-1.8
2017-08-01T22:40:48.361Z,-1.8
2017-08-01T22:41:47.611Z,-1.7
2017-08-01T22:42:47.705Z,-1.7
2017-08-01T22:43:46.910Z,-1.8
2017-08-01T22:44:46.618Z,-1.9
2017-08-01T22:45:45.701Z,-1.9
2017-08-01T22:46:45.289Z,-1.8
2017-08-01T22:47:44.993Z,-1.8
2017-08-01T22:48:44.222Z,-1.8
2017-08-01T22:49:43.308Z,-1.8
2017-08-01T22:50:43.019Z,-1.8
2017-08-01T22:51:42.738Z,-1.8
2017-08-01T22:52:41.977Z,-1.8
2017-08-01T22:53:40.947Z,-1.8
2017-08-01T22:54:40.676Z,-1.8
2017-08-01T22:55:40.386Z,-1.8
2017-08-01T22:56:39.597Z,-1.8
2017-08-01T22:57:39.298Z,-1.8
2017-08-01T22:58:38.517Z,-1.8
2017-08-01T22:59:37.736Z,-1.8
2017-08-01T23:00:37.435Z,-1.6
2017-08-01T23:01:36.443Z,-1.6
2017-08-01T23:02:36.145Z,-1.7
2017-08-01T23:03:35.618Z,-1.7
2017-08-01T23:04:35.216Z,-1.8
2017-08-01T23:05:34.302Z,-1.7
2017-08-01T23:06:34.003Z,-1.7
2017-08-01T23:07:33.110Z,-1.7
2017-08-01T23:08:32.705Z,-1.7
2017-08-01T23:09:32.161Z,-1.7
2017-08-01T23:10:31.879Z,-1.6
2017-08-01T23:11:30.966Z,-1.5
2017-08-01T23:12:30.455Z,-1.5
2017-08-01T23:14:28.968Z,-1.4
2017-08-01T23:15:28.693Z,-1.4
2017-08-01T23:16:28.394Z,-1.4
2017-08-01T23:17:27.249Z,-1.3
2017-08-01T23:18:26.969Z,-1.4
2017-08-01T23:19:26.672Z,-1.4
2017-08-01T23:20:25.644Z,-1.4
2017-08-01T23:21:25.239Z,-1.4
2017-08-01T23:22:24.706Z,-1.4
2017-08-01T23:23:24.056Z,-1.5
2017-08-01T23:24:23.779Z,-1.5
2017-08-01T23:26:22.270Z,-1.4
2017-08-01T23:27:22.011Z,-1.4
2017-08-01T23:28:21.232Z,-1.5
2017-08-01T23:29:20.468Z,-1.6
2017-08-01T23:30:19.966Z,-1.7
2017-08-01T23:30:50.244Z,-1.7
2017-08-01T23:32:19.153Z,-1.7
2017-08-01T23:33:18.232Z,-1.7
2017-08-01T23:34:17.926Z,-1.7
2017-08-01T23:35:17.517Z,-1.7
2017-08-01T23:36:16.710Z,-1.6
2017-08-01T23:37:16.317Z,-1.5
2017-08-01T23:38:15.522Z,-1.6
2017-08-01T23:39:15.236Z,-1.6
2017-08-01T23:40:14.441Z,-1.6
2017-08-01T23:41:14.160Z,-1.6
2017-08-01T23:42:13.361Z,-1.6
2017-08-01T23:44:12.347Z,-1.5
2017-08-01T23:45:11.822Z,-1.6
2017-08-01T23:46:10.917Z,-1.6
2017-08-01T23:47:10.515Z,-1.6
2017-08-01T23:48:10.117Z,-1.6
2017-08-01T23:49:09.209Z,-1.6
2017-08-01T23:50:08.791Z,-1.6
2017-08-01T23:51:08.385Z,-1.6
2017-08-01T23:52:07.598Z,-1.6
2017-08-01T23:53:07.302Z,-1.6
2017-08-01T23:54:06.396Z,-1.7
2017-08-01T23:55:06.114Z,-1.6
2017-08-01T23:56:05.216Z,-1.6
2017-08-01T23:57:04.685Z,-1.6
2017-08-01T23:58:04.409Z,-1.6
2017-08-01T23:59:03.619Z,-1.5
